Aérodrome :
LOGIN :

S'inscrire | Disclaimer

   EN    FR    IT 

 










Légende :    VFR   VFR Marginal   IFR   IFR Intensif   IFR Très Intensif
Visi : 
Plafond : 
>= 8 km
>= 3000ft
5 à 8 km
1000 à 3000 ft
1500m à 5 km
500 à 1000 ft
800 à 1500m
200 à 500 ft
< 800m
< 200 ft
Symboles :   Orages  Brouillard  Fortes neiges  Fortes précipitations  Vent > 20 kt
SIGMETs :   Divers  Orages  Givrage  Turbulence  Onde Orograph.  Cendres Volcan.






- Altitude de l'aérodrome : -13 ft
- Code IATA : LEY


EHLE - Lelystad

DERNIER METAR :
  • 091025Z AUTO 19010KT 9999 OVC007 03/02 Q1002 NOSIG

METARs EXPIRÉS :
  • 090955Z AUTO 18011KT 9999 OVC007 03/01 Q1002 NOSIG
  • 090925Z AUTO 18010KT 9999 OVC008 02/01 Q1002 NOSIG
  • 090855Z AUTO 18009KT 9999 SCT008 BKN009 OVC010 02/00 Q1002 NOSIG
  • 090825Z AUTO 18008KT 9999 NSC 01/00 Q1002 TEMPO BKN008
  • 090755Z AUTO 19009KT 9999 NSC 01/M00 Q1001 NOSIG

TAF AMD TAF EHLE
Valide du 09 à 08h jusqu'au 10 à 12h UTC


090849Z 0908/1012 18010KT 9999 BKN008
BECMG 0910/0913 SCT010 BKN018
TEMPO 0910/0920 7000 -RADZ -SHRA SCT008 BKN014 SCT018TCU
PROB40 1000/1012 6000 BKN006
BECMG 1001/1004 14010KT
PROB30
TEMPO 1008/1012 4000 -RASN



MET'MAP, la Météo Aéronautique d'un coup d'oeil ! - Copyright ORBIFLY Décembre 2007 - Disclaimer

ORBIFLY MET'MAP TEAM :

Programmation & Développement : Alexandra Zaïnal
Sur une idée originale de : Baudouin d'Aumeries
Assistance à la programmation : Marc-Olivier Méhu
Soutien technique & logistique : Manuel Goepfert

Contact : metmap@orbifly.com




SOURCES & CREDITS :

   NOAA